Terminal Aerodrome Forecast
Issued by NWS Mobile, AL

Home | Current Version | Previous Version | Text Only | Print | Product List | Glossary On
Versions: 1 2 3 4 5 6 7 8 9 10 11 12 13 14
000
FTUS44 KMOB 201930 AAA
TAFPNS
TAF AMD
KPNS 201930Z 2020/2118 33008KT P6SM VCTS SCT050CB
     FM202100 20007KT P6SM VCTS BKN035CB
     FM210300 VRB03KT P6SM FEW050 SCT250
     FM211500 18004KT P6SM VCSH SCT035 SCT250=

USA.gov is the U.S. government's official web portal to all federal, state and local government web resources and services.